PHTO/ITO METAR and TAF weather

Enter ICAO airport designator
Station Type Date Time Source
PHTO METAR 2020/01/20 18:53 UTC NOAA

PHTO 201853Z 23004KT 10SM BKN045 BKN060 23/15 A3018 RMK AO2 SLP217 T02280150


Station Type Date Time Source
PHTO Decoded METAR 2020/01/20 18:53 UTC NOAA

HILO INTERNATIONAL AIRPORT, HI, United States (PHTO) 19-43N 155-03W 12M
Jan 20, 2020 - 01:53 PM EST / 2020.01.20 1853 UTC
Wind: from the SW (230 degrees) at 5 MPH (4 KT):0
Visibility: 10 mile(s):0
Sky conditions: mostly cloudy
Temperature: 73.0 F (22.8 C)
Dew Point: 59.0 F (15.0 C)
Relative Humidity: 61%
Pressure (altimeter): 30.18 in. Hg (1022 hPa)
ob: PHTO 201853Z 23004KT 10SM BKN045 BKN060 23/15 A3018 RMK AO2 SLP217 T02280150
cycle: 19

Station Type Date Time Source
PHTO TAF 2020/01/20 18:22 UTC NOAA

TAF PHTO 201720Z 2018/2118 25005KT P6SM VCSH SCT020 BKN040
FM202000 10008KT P6SM VCSH FEW025 SCT040
FM210500 25005KT P6SM VCSH SCT020 BKN040

Example: see airport list